Time;durP1;ratioP1;P1;durP2;ratioP2;P2;SDS_P1;SDS_P2;PMS_P1;PMS_P2;Temp;Humidity;BMP_temperature;BMP_pressure;BME280_temperature;BME280_humidity;BME280_pressure;Samples;Min_cycle;Max_cycle;Signal;HPM_P1;HPM_P2
2023/05/06 00:13:32;;;;;;;;;;;;;;;23.34;40.28;100459.28;41600428;28;20434;-75
2023/05/06 00:33:33;;;;;;;;;;;;;;;23.30;40.38;100470.22;41589407;28;19965;-75
2023/05/06 00:53:33;;;;;;;;;;;;;;;23.23;41.03;100469.06;41573143;28;19925;-75
2023/05/06 01:13:52;;;;;;;;;;;;;;;23.21;41.28;100466.56;41468804;28;20403;-74
2023/05/06 01:34:06;;;;;;;;;;;;;;;23.16;41.50;100448.47;41498492;28;19930;-73
2023/05/06 01:54:06;;;;;;;;;;;;;;;23.14;41.11;100439.81;41494368;28;20007;-73
2023/05/06 02:14:08;;;;;;;;;;;;;;;23.14;41.07;100452.16;41514432;28;19984;-74
2023/05/06 02:34:09;;;;;;;;;;;;;;;23.07;41.32;100451.88;41463377;28;20024;-74
2023/05/06 02:54:10;;;;;;;;;;;;;;;23.04;41.31;100449.47;41485176;28;20043;-74
2023/05/06 03:14:11;;;;;;;;;;;;;;;23.01;41.39;100466.41;41512032;28;19922;-74
2023/05/06 03:34:11;;;;;;;;;;;;;;;23.04;41.27;100438.91;41507629;28;19921;-74
2023/05/06 03:54:12;;;;;;;;;;;;;;;22.94;41.47;100446.78;41485483;28;19921;-74
2023/05/06 04:14:12;;;;;;;;;;;;;;;22.96;41.46;100462.47;41506079;28;19928;-74
2023/05/06 04:34:12;;;;;;;;;;;;;;;22.94;41.77;100470.53;41541450;28;19928;-74
2023/05/06 04:54:13;;;;;;;;;;;;;;;22.96;41.67;100481.81;41483186;28;19922;-75
2023/05/06 05:14:13;;;;;;;;;;;;;;;23.00;41.71;100500.88;41547932;28;20015;-76
2023/05/06 05:34:13;;;;;;;;;;;;;;;23.00;41.39;100495.59;41521679;28;19960;-77
2023/05/06 05:54:14;;;;;;;;;;;;;;;23.05;42.52;100500.50;41519950;28;19933;-75
2023/05/06 06:14:14;;;;;;;;;;;;;;;23.11;43.25;100484.16;41499422;28;19929;-74
2023/05/06 06:34:14;;;;;;;;;;;;;;;23.16;43.71;100492.50;41514184;28;20415;-77
2023/05/06 06:54:15;;;;;;;;;;;;;;;23.07;41.39;100474.78;41494276;28;20012;-75
2023/05/06 07:14:15;;;;;;;;;;;;;;;23.05;41.40;100474.09;41406601;28;19932;-76
2023/05/06 07:34:15;;;;;;;;;;;;;;;23.03;41.95;100477.69;41466726;28;19928;-72
2023/05/06 07:54:15;;;;;;;;;;;;;;;22.94;42.09;100457.34;41499096;28;20015;-75
2023/05/06 08:14:16;;;;;;;;;;;;;;;22.81;41.60;100481.31;41497202;28;19929;-77
2023/05/06 08:34:19;;;;;;;;;;;;;;;22.78;41.33;100476.25;41502522;28;19941;-74
2023/05/06 08:54:22;;;;;;;;;;;;;;;22.74;41.37;100469.56;41514875;28;19925;-77
2023/05/06 09:14:24;;;;;;;;;;;;;;;22.76;41.63;100453.59;41486591;28;19932;-73
2023/05/06 09:34:26;;;;;;;;;;;;;;;22.78;41.14;100439.31;41457239;28;20373;-79
2023/05/06 09:54:28;;;;;;;;;;;;;;;22.97;41.20;100432.47;41507277;28;19992;-79
2023/05/06 10:14:29;;;;;;;;;;;;;;;23.10;39.34;100401.41;41544511;28;19929;-79
2023/05/06 10:34:36;;;;;;;;;;;;;;;23.37;40.29;100378.91;41526095;28;19957;-77
2023/05/06 10:54:48;;;;;;;;;;;;;;;23.63;37.41;100354.63;41460190;28;20342;-77
2023/05/06 11:14:48;;;;;;;;;;;;;;;23.87;39.55;100333.09;41429701;28;19937;-77
2023/05/06 11:34:48;;;;;;;;;;;;;;;23.95;35.27;100335.94;41528905;28;20402;-79
2023/05/06 11:54:52;;;;;;;;;;;;;;;24.02;36.92;100344.13;41517892;28;19929;-77
2023/05/06 12:14:54;;;;;;;;;;;;;;;23.98;36.53;100327.69;41580309;28;19932;-75
2023/05/06 12:34:55;;;;;;;;;;;;;;;23.92;35.78;100322.97;41456991;28;19925;-71
2023/05/06 12:54:55;;;;;;;;;;;;;;;23.93;36.15;100319.34;41431498;28;19925;-73
2023/05/06 13:14:56;;;;;;;;;;;;;;;23.92;36.88;100315.03;41480885;28;20434;-74
2023/05/06 13:34:56;;;;;;;4.33;3.23;;;;;;;23.96;37.49;100307.66;41440240;28;20476;-74
2023/05/06 13:54:57;;;;;;;;;;;;;;;24.04;38.60;100322.84;41335849;28;20046;-75
2023/05/06 14:14:57;;;;;;;;;;;;;;;23.79;39.29;100327.66;41521813;28;20305;-76
2023/05/06 14:34:58;;;;;;;;;;;;;;;23.37;41.42;100326.06;41374845;28;19929;-75
2023/05/06 14:54:58;;;;;;;;;;;;;;;23.77;41.36;100319.88;41507896;28;19921;-79
2023/05/06 15:14:59;;;;;;;;;;;;;;;23.73;43.26;100302.63;41516107;28;19929;-80
2023/05/06 15:35:03;;;;;;;;;;;;;;;23.64;44.58;100280.50;41512716;28;19925;-78
2023/05/06 15:55:04;;;;;;;;;;;;;;;23.58;44.58;100278.41;41584339;28;20304;-83
2023/05/06 16:15:05;;;;;;;;;;;;;;;23.82;44.41;100279.81;41546730;28;19929;-75
2023/05/06 16:35:05;;;;;;;;;;;;;;;23.71;44.35;100285.22;41569881;28;20012;-82
2023/05/06 16:55:06;;;;;;;;;;;;;;;23.71;43.85;100298.44;41578356;28;19925;-83
2023/05/06 17:15:06;;;;;;;;;;;;;;;23.73;43.80;100286.75;41568593;28;19910;-84
2023/05/06 17:35:10;;;;;;;;;;;;;;;23.67;44.76;100280.19;41487068;28;19926;-88
2023/05/06 17:55:11;;;;;;;;;;;;;;;23.84;45.58;100277.88;41508631;28;19967;-88
2023/05/06 18:15:24;;;;;;;;;;;;;;;23.89;46.09;100296.78;41531862;28;20299;-90
2023/05/06 18:35:25;;;;;;;;;;;;;;;23.95;46.37;100306.00;41528542;28;19957;-85
2023/05/06 18:55:26;;;;;;;;;;;;;;;23.96;46.19;100303.22;41539659;28;19920;-78
2023/05/06 19:15:27;;;;;;;;;;;;;;;23.77;46.54;100313.75;41525252;28;19928;-88
2023/05/06 19:35:27;;;;;;;;;;;;;;;23.62;46.13;100339.72;41612860;28;19921;-87
2023/05/06 19:55:27;;;;;;;;;;;;;;;23.54;46.17;100353.63;41613702;28;19921;-85
2023/05/06 20:15:28;;;;;;;;;;;;;;;23.51;46.04;100361.84;41515707;28;19948;-85
2023/05/06 20:35:29;;;;;;;;;;;;;;;23.47;46.09;100336.66;41541152;28;19968;-85
2023/05/06 20:55:30;;;;;;;;;;;;;;;23.44;46.31;100324.53;41560322;28;19916;-85
2023/05/06 21:15:32;;;;;;;;;;;;;;;23.38;46.41;100303.94;41592120;28;20004;-85
2023/05/06 21:35:32;;;;;;;;;;;;;;;23.33;46.49;100314.09;41611867;28;19929;-86
2023/05/06 21:55:33;;;;;;;;;;;;;;;23.31;46.44;100330.09;41532788;28;19925;-86
2023/05/06 22:15:33;;;;;;;;;;;;;;;23.28;46.62;100338.25;41526218;28;20039;-85
2023/05/06 22:35:33;;;;;;;;;;;;;;;23.24;46.92;100330.72;41512823;28;19970;-86
2023/05/06 22:55:35;;;;;;;;;;;;;;;23.20;46.84;100327.53;41512843;28;19929;-85
2023/05/06 23:15:35;;;;;;;;;;;;;;;23.22;46.51;100319.47;41601812;28;20446;-85
2023/05/06 23:35:36;;;;;;;;;;;;;;;23.21;46.75;100313.34;41555844;28;19932;-83
2023/05/06 23:55:36;;;;;;;;;;;;;;;23.15;46.62;100311.22;41512914;28;19931;-88
